Time;durP1;ratioP1;P1;durP2;ratioP2;P2;SDS_P1;SDS_P2;PMS_P1;PMS_P2;Temp;Humidity;BMP_temperature;BMP_pressure;BME280_temperature;BME280_humidity;BME280_pressure;Samples;Min_cycle;Max_cycle;Signal;HPM_P1;HPM_P2
2021/01/26 05:03:47;;;;;;;3.43;3.23;;;;;;;22.24;47.48;98069.44;23920557;23;20773;-76
2021/01/26 05:13:50;;;;;;;3.50;3.20;;;;;;;22.22;47.30;98060.19;20794367;28;20257;-77
2021/01/26 05:23:55;;;;;;;3.50;3.30;;;;;;;22.30;47.15;98058.25;20800268;28;20726;-77
2021/01/26 05:33:58;;;;;;;3.60;3.40;;;;;;;22.35;47.18;98053.28;20782994;28;20257;-77
2021/01/26 05:44:01;;;;;;;3.47;3.20;;;;;;;22.36;47.24;98054.09;20758891;28;20270;-76
2021/01/26 05:54:04;;;;;;;3.63;3.43;;;;;;;22.31;47.17;98052.06;20791565;28;20287;-75
2021/01/26 06:04:09;;;;;;;3.10;2.90;;;;;;;22.29;47.23;98056.66;20798532;28;20268;-75
2021/01/26 06:14:12;;;;;;;3.40;3.17;;;;;;;22.27;47.41;98057.84;20794312;28;20288;-75
2021/01/26 06:24:15;;;;;;;3.33;3.03;;;;;;;22.32;47.28;98071.94;20806878;28;20213;-76
2021/01/26 06:34:23;;;;;;;3.53;3.23;;;;;;;22.30;47.42;98073.91;20821094;28;20629;-75
2021/01/26 06:44:35;;;;;;;3.23;3.03;;;;;;;22.30;47.49;98080.94;20789160;28;20222;-75
2021/01/26 06:54:42;;;;;;;3.60;3.30;;;;;;;22.27;47.60;98078.72;20768364;28;20240;-74
2021/01/26 07:04:57;;;;;;;3.77;2.77;;;;;;;22.28;47.46;98075.09;20766724;28;20275;-74
2021/01/26 07:15:35;;;;;;;3.20;2.90;;;;;;;22.32;47.34;98076.34;20772896;28;20217;-75
2021/01/26 07:25:59;;;;;;;3.60;3.30;;;;;;;22.34;47.69;98067.34;20794778;28;20229;-75
2021/01/26 07:36:06;;;;;;;7.43;6.20;;;;;;;21.72;44.83;98068.81;20768763;28;20265;-75
2021/01/26 07:46:11;;;;;;;7.93;4.80;;;;;;;21.87;45.99;98076.66;20764658;28;20214;-74
2021/01/26 07:56:18;;;;;;;6.83;3.90;;;;;;;22.07;45.58;98057.59;20802795;28;20768;-74
2021/01/26 08:06:52;;;;;;;8.30;4.03;;;;;;;22.25;45.10;98071.03;20770404;28;20222;-73
2021/01/26 08:16:54;;;;;;;7.77;3.60;;;;;;;22.36;45.29;98075.78;20800505;28;20248;-74
2021/01/26 08:27:33;;;;;;;3.90;3.60;;;;;;;22.40;45.68;98078.84;20791751;28;20218;-75
2021/01/26 08:37:45;;;;;;;9.07;3.60;;;;;;;22.39;46.20;98085.03;20795052;28;20252;-74
2021/01/26 08:47:49;;;;;;;4.50;3.73;;;;;;;22.37;46.26;98077.41;20805533;28;20533;-74
2021/01/26 08:57:51;;;;;;;6.47;3.50;;;;;;;22.37;46.52;98080.00;20796197;28;20676;-74
2021/01/26 09:07:54;;;;;;;5.30;3.80;;;;;;;22.35;46.66;98102.88;20789634;28;20494;-74
2021/01/26 09:17:56;;;;;;;3.97;3.67;;;;;;;22.38;46.73;98106.94;20825237;28;20329;-75
2021/01/26 09:28:00;;;;;;;4.13;3.73;;;;;;;22.36;46.75;98108.91;20779735;28;20284;-75
2021/01/26 09:38:04;;;;;;;5.00;3.67;;;;;;;22.35;46.93;98128.97;20798003;28;20282;-74
2021/01/26 09:48:07;;;;;;;5.63;3.90;;;;;;;22.37;46.89;98121.78;20783325;28;20636;-73
2021/01/26 09:58:09;;;;;;;4.20;3.30;;;;;;;22.40;46.89;98134.47;20800642;28;20225;-75
2021/01/26 10:08:12;;;;;;;3.90;3.60;;;;;;;22.40;46.76;98142.28;20802895;28;20240;-75
2021/01/26 10:18:14;;;;;;;4.13;3.80;;;;;;;22.42;46.74;98145.53;20807726;28;20244;-75
2021/01/26 10:28:25;;;;;;;4.13;3.73;;;;;;;22.42;46.79;98142.13;20813232;28;20264;-75
2021/01/26 10:38:27;;;;;;;3.90;3.60;;;;;;;22.42;46.77;98150.75;20776071;28;20653;-73
2021/01/26 10:48:31;;;;;;;3.80;3.50;;;;;;;22.40;46.98;98160.56;20771980;28;20287;-74
2021/01/26 10:58:33;;;;;;;3.80;3.50;;;;;;;22.40;47.13;98163.19;20777138;28;20291;-74
2021/01/26 11:08:36;;;;;;;5.23;4.13;;;;;;;22.42;47.00;98180.50;20757370;28;20254;-74
2021/01/26 11:18:38;;;;;;;3.90;3.50;;;;;;;22.40;47.23;98199.75;20784867;28;20280;-74
2021/01/26 11:28:40;;;;;;;4.90;3.63;;;;;;;22.42;46.94;98196.16;20763554;28;20276;-75
2021/01/26 11:38:42;;;;;;;3.67;3.47;;;;;;;22.42;47.13;98205.59;20766371;28;20214;-75
2021/01/26 11:48:44;;;;;;;3.93;3.63;;;;;;;22.47;47.08;98204.25;20773527;28;20279;-74
2021/01/26 11:58:46;;;;;;;3.90;3.60;;;;;;;22.44;47.08;98226.28;20836035;28;20221;-75
2021/01/26 12:08:48;;;;;;;3.87;2.83;;;;;;;22.56;47.12;98224.03;20795018;28;20225;-75
2021/01/26 12:18:50;;;;;;;3.60;3.30;;;;;;;22.63;46.96;98223.16;20792238;28;20300;-79
2021/01/26 12:28:52;;;;;;;3.37;3.07;;;;;;;22.63;46.96;98230.97;20781872;28;20331;-81
2021/01/26 12:38:54;;;;;;;3.63;3.30;;;;;;;22.63;46.85;98230.16;20779500;28;20311;-76
2021/01/26 12:48:56;;;;;;;3.37;3.17;;;;;;;22.63;47.54;98241.44;20799534;28;20298;-76
2021/01/26 12:58:58;;;;;;;4.17;3.40;;;;;;;22.63;47.52;98235.38;20792625;28;20245;-76
2021/01/26 13:09:00;;;;;;;4.20;3.80;;;;;;;22.62;47.59;98241.63;20787648;28;20305;-76
2021/01/26 13:19:02;;;;;;;3.83;3.53;;;;;;;22.59;47.85;98255.06;20786083;28;20636;-74
2021/01/26 13:29:05;;;;;;;3.60;3.23;;;;;;;22.60;48.01;98261.88;20789291;28;20795;-79
2021/01/26 13:39:06;;;;;;;7.73;3.73;;;;;;;22.65;48.09;98264.75;20789802;28;20253;-80
2021/01/26 13:49:09;;;;;;;6.13;3.43;;;;;;;22.69;48.00;98279.06;20808856;28;20241;-78
2021/01/26 13:59:10;;;;;;;5.83;3.40;;;;;;;22.72;48.12;98287.38;20800024;28;20311;-79
2021/01/26 14:09:14;;;;;;;5.00;3.30;;;;;;;22.71;48.08;98295.34;20778376;28;20300;-78
2021/01/26 14:19:16;;;;;;;3.80;3.47;;;;;;;22.72;48.04;98303.03;20792230;28;20249;-78
2021/01/26 14:29:18;;;;;;;3.77;3.47;;;;;;;22.69;48.04;98307.81;20795448;28;20258;-77
2021/01/26 14:39:20;;;;;;;4.10;3.70;;;;;;;22.66;47.98;98308.16;20773649;28;20323;-79
2021/01/26 14:49:22;;;;;;;3.50;2.97;;;;;;;22.66;48.07;98319.41;20793651;28;20244;-78
2021/01/26 14:59:25;;;;;;;3.43;3.00;;;;;;;22.72;48.00;98338.78;20792897;28;20257;-76
2021/01/26 15:09:27;;;;;;;4.93;3.17;;;;;;;22.71;47.87;98351.03;20777642;28;20246;-76
2021/01/26 15:19:31;;;;;;;3.37;3.13;;;;;;;22.75;47.83;98367.16;20759976;28;20316;-78
2021/01/26 15:29:34;;;;;;;3.23;2.93;;;;;;;22.75;47.85;98373.22;20769838;28;20364;-78
2021/01/26 15:39:35;;;;;;;3.73;3.40;;;;;;;22.74;47.90;98383.84;20772632;28;20372;-78
2021/01/26 15:49:38;;;;;;;3.40;3.03;;;;;;;22.71;48.27;98384.19;20778018;28;20256;-79
2021/01/26 15:59:39;;;;;;;3.37;3.17;;;;;;;22.68;48.16;98395.00;20763824;28;20308;-79
2021/01/26 16:09:42;;;;;;;3.13;2.83;;;;;;;22.69;48.20;98407.09;20798954;28;20307;-78
2021/01/26 16:19:43;;;;;;;3.67;3.37;;;;;;;22.70;48.06;98419.13;20774883;28;20246;-78
2021/01/26 16:29:47;;;;;;;3.67;3.37;;;;;;;22.69;47.78;98433.22;20807785;28;20295;-78
2021/01/26 16:39:49;;;;;;;4.77;3.57;;;;;;;22.68;47.82;98452.47;20760852;28;20253;-78
2021/01/26 16:49:53;;;;;;;5.40;3.30;;;;;;;22.63;47.97;98465.25;20809468;28;20241;-78
2021/01/26 16:59:57;;;;;;;6.70;3.33;;;;;;;22.61;47.84;98472.44;20808794;28;20303;-78
2021/01/26 17:10:00;;;;;;;3.93;3.37;;;;;;;22.59;47.82;98493.53;20779723;28;20298;-79
2021/01/26 17:20:01;;;;;;;7.03;4.20;;;;;;;22.57;47.88;98492.09;20820295;28;20241;-78
2021/01/26 17:30:05;;;;;;;3.13;2.83;;;;;;;22.63;48.15;98500.03;20812108;28;20641;-78
2021/01/26 17:40:08;;;;;;;4.60;2.73;;;;;;;22.64;48.09;98517.31;20836822;28;20213;-78
2021/01/26 17:50:12;;;;;;;3.07;2.87;;;;;;;22.66;48.36;98524.97;20845036;28;20205;-79
2021/01/26 18:00:15;;;;;;;3.87;3.07;;;;;;;22.63;48.40;98533.16;20821167;28;20267;-80
2021/01/26 18:10:18;;;;;;;4.10;3.70;;;;;;;22.63;48.46;98554.06;20841004;28;20206;-78
2021/01/26 18:20:20;;;;;;;3.40;3.10;;;;;;;22.68;48.42;98563.00;20809512;28;20218;-78
2021/01/26 18:30:24;;;;;;;4.70;3.20;;;;;;;22.72;48.37;98566.91;20836642;28;20341;-78
2021/01/26 18:40:26;;;;;;;5.50;3.40;;;;;;;22.75;48.16;98584.84;20817662;28;20565;-80
2021/01/26 18:50:28;;;;;;;3.63;3.40;;;;;;;22.73;48.37;98588.59;20809264;28;20197;-78
2021/01/26 19:00:30;;;;;;;7.03;3.50;;;;;;;22.69;48.41;98598.56;20799512;28;20226;-76
2021/01/26 19:10:33;;;;;;;3.80;3.50;;;;;;;22.67;48.54;98604.97;20776082;28;20278;-77
2021/01/26 19:20:34;;;;;;;4.07;3.43;;;;;;;22.66;48.68;98612.00;20748062;28;20371;-77
2021/01/26 19:30:37;;;;;;;4.10;3.17;;;;;;;22.70;48.35;98622.91;20780706;28;20215;-76
2021/01/26 19:40:38;;;;;;;4.33;2.83;;;;;;;22.75;48.17;98625.81;20775531;28;20217;-76
2021/01/26 19:50:41;;;;;;;2.97;2.77;;;;;;;22.78;48.25;98625.47;20794558;28;20287;-78
2021/01/26 20:00:43;;;;;;;4.30;2.97;;;;;;;22.79;48.16;98621.88;20803954;28;20697;-80
2021/01/26 20:10:46;;;;;;;3.07;2.70;;;;;;;22.75;48.29;98621.41;20805461;28;20227;-82
2021/01/26 20:20:48;;;;;;;3.20;2.90;;;;;;;22.72;48.32;98641.84;20800227;28;20324;-80
2021/01/26 20:30:52;;;;;;;3.20;3.00;;;;;;;22.68;48.42;98651.00;20841593;28;20271;-81
2021/01/26 20:40:54;;;;;;;3.50;2.80;;;;;;;22.67;48.49;98654.63;20848075;28;20701;-83
2021/01/26 20:50:57;;;;;;;5.77;3.10;;;;;;;22.72;48.22;98657.53;20804813;28;20237;-81
2021/01/26 21:00:59;;;;;;;4.47;3.30;;;;;;;22.73;48.27;98661.75;20798617;28;20221;-81
2021/01/26 21:11:01;;;;;;;2.87;2.47;;;;;;;22.76;48.22;98669.22;20822567;28;20217;-80
2021/01/26 21:21:03;;;;;;;2.93;2.73;;;;;;;22.74;48.24;98668.63;20872630;28;20224;-80
2021/01/26 21:31:05;;;;;;;5.00;3.03;;;;;;;22.72;48.29;98678.41;20806280;28;20268;-82
2021/01/26 21:41:07;;;;;;;3.60;3.40;;;;;;;22.67;48.30;98671.13;20804996;28;20221;-81
2021/01/26 21:51:10;;;;;;;3.07;2.87;;;;;;;22.68;48.49;98682.34;20787724;28;20325;-81
2021/01/26 22:01:11;;;;;;;3.43;2.63;;;;;;;22.67;48.36;98678.94;20821551;28;20226;-79
2021/01/26 22:11:14;;;;;;;3.00;2.63;;;;;;;22.72;48.34;98684.47;20788903;28;20263;-81
2021/01/26 22:21:16;;;;;;;3.30;3.10;;;;;;;22.44;46.27;98706.00;20781122;28;20229;-81
2021/01/26 22:31:18;;;;;;;5.10;3.20;;;;;;;22.46;46.20;98696.16;20787037;28;20303;-79
2021/01/26 22:41:20;;;;;;;3.03;2.83;;;;;;;22.42;46.30;98696.50;20791725;28;20743;-80
2021/01/26 22:51:23;;;;;;;3.20;2.93;;;;;;;22.40;46.18;98693.25;20811655;28;20218;-78
2021/01/26 23:01:24;;;;;;;3.80;3.13;;;;;;;22.38;46.36;98697.03;20795273;28;20275;-79
2021/01/26 23:11:27;;;;;;;3.33;3.03;;;;;;;22.36;46.65;98696.38;20782774;28;20210;-79
2021/01/26 23:21:28;;;;;;;3.20;2.90;;;;;;;22.35;46.63;98698.19;20748701;28;20316;-79
2021/01/26 23:31:31;;;;;;;3.33;3.03;;;;;;;22.33;46.72;98689.72;20810845;28;20221;-78
2021/01/26 23:41:33;;;;;;;3.30;2.80;;;;;;;22.35;46.78;98698.19;20785756;28;20275;-78
2021/01/26 23:51:35;;;;;;;3.20;2.50;;;;;;;22.35;46.64;98692.16;20811138;28;20563;-78
